createdAt,value
2023-05-06T00:02:02.660Z,12.70
2023-05-06T00:04:29.632Z,12.70
2023-05-06T00:06:57.426Z,12.70
2023-05-06T00:09:24.639Z,12.60
2023-05-06T00:11:51.707Z,12.60
2023-05-06T00:14:18.763Z,12.60
2023-05-06T00:16:46.100Z,12.60
2023-05-06T00:19:13.369Z,12.60
2023-05-06T00:21:40.373Z,12.50
2023-05-06T00:24:07.454Z,12.50
2023-05-06T00:26:34.536Z,12.40
2023-05-06T00:29:01.632Z,12.40
2023-05-06T00:31:28.654Z,12.30
2023-05-06T00:33:55.848Z,12.40
2023-05-06T00:36:22.829Z,12.30
2023-05-06T00:38:49.813Z,12.30
2023-05-06T00:41:16.824Z,12.30
2023-05-06T00:43:43.825Z,12.30
2023-05-06T00:46:11.720Z,12.30
2023-05-06T00:48:39.218Z,12.30
2023-05-06T00:51:06.593Z,12.20
2023-05-06T00:53:33.764Z,12.10
2023-05-06T00:56:00.748Z,12.10
2023-05-06T00:58:27.949Z,12.20
2023-05-06T01:00:55.752Z,12.10
2023-05-06T01:03:23.069Z,12.10
2023-05-06T01:06:15.621Z,12.10
2023-05-06T01:08:54.680Z,12.10
2023-05-06T01:11:36.233Z,12.10
2023-05-06T01:14:37.522Z,12.00
2023-05-06T01:17:07.262Z,12.00
2023-05-06T01:19:38.956Z,11.90
2023-05-06T01:22:07.492Z,11.90
2023-05-06T01:24:38.768Z,12.00
2023-05-06T01:27:06.796Z,12.00
2023-05-06T01:29:35.711Z,12.00
2023-05-06T01:32:15.665Z,11.90
2023-05-06T01:34:54.762Z,11.90
2023-05-06T01:37:53.704Z,11.90
2023-05-06T01:40:22.032Z,11.90
2023-05-06T01:42:50.838Z,11.90
2023-05-06T01:45:19.864Z,11.90
2023-05-06T01:47:47.845Z,11.80
2023-05-06T01:50:15.730Z,11.80
2023-05-06T01:52:42.839Z,11.70
2023-05-06T01:55:10.161Z,11.80
2023-05-06T01:57:37.312Z,11.70
2023-05-06T02:00:04.809Z,11.80
2023-05-06T02:02:39.357Z,11.70
2023-05-06T02:05:07.773Z,11.70
2023-05-06T02:07:38.459Z,11.80
2023-05-06T02:10:06.097Z,11.70
2023-05-06T02:12:35.790Z,11.70
2023-05-06T02:15:04.167Z,11.70
2023-05-06T02:17:31.277Z,11.70
2023-05-06T02:19:58.314Z,11.50
2023-05-06T02:22:25.239Z,11.50
2023-05-06T02:24:52.328Z,11.50
2023-05-06T02:27:19.517Z,11.40
2023-05-06T02:29:46.791Z,11.50
2023-05-06T02:32:14.320Z,11.40
2023-05-06T02:34:41.243Z,11.50
2023-05-06T02:37:08.607Z,11.50
2023-05-06T02:39:35.899Z,11.50
2023-05-06T02:42:03.814Z,11.40
2023-05-06T02:44:30.865Z,11.40
2023-05-06T02:47:01.494Z,11.30
2023-05-06T02:49:28.473Z,11.40
2023-05-06T02:51:55.671Z,11.40
2023-05-06T02:54:22.623Z,11.30
2023-05-06T02:56:49.940Z,11.40
2023-05-06T02:59:17.118Z,11.30
2023-05-06T03:01:44.127Z,11.30
2023-05-06T03:04:11.129Z,11.30
2023-05-06T03:06:38.104Z,11.30
2023-05-06T03:09:05.293Z,11.20
2023-05-06T03:11:33.089Z,11.20
2023-05-06T03:14:03.966Z,11.20
2023-05-06T03:16:31.122Z,11.20
2023-05-06T03:19:00.273Z,11.20
2023-05-06T03:21:27.958Z,11.20
2023-05-06T03:23:55.027Z,11.20
2023-05-06T03:26:24.392Z,11.20
2023-05-06T03:28:52.039Z,11.20
2023-05-06T03:31:21.462Z,11.10
2023-05-06T03:33:49.023Z,11.10
2023-05-06T03:36:16.405Z,11.10
2023-05-06T03:38:45.919Z,11.10
2023-05-06T03:41:13.251Z,11.10
2023-05-06T03:43:41.043Z,11.00
2023-05-06T03:46:08.484Z,10.90
2023-05-06T03:48:37.036Z,11.00
2023-05-06T03:51:08.185Z,11.00
2023-05-06T03:53:35.168Z,10.90
2023-05-06T03:56:04.120Z,10.90
2023-05-06T03:58:31.950Z,11.00
2023-05-06T04:01:01.109Z,11.00
2023-05-06T04:03:28.802Z,10.90
2023-05-06T04:05:55.972Z,11.00
2023-05-06T04:08:26.126Z,10.90
2023-05-06T04:10:54.620Z,10.90
2023-05-06T04:13:30.764Z,10.90
2023-05-06T04:16:00.248Z,10.90
2023-05-06T04:18:34.378Z,10.90
2023-05-06T04:21:06.868Z,10.90
2023-05-06T04:23:36.797Z,11.00
2023-05-06T04:26:04.808Z,11.10
2023-05-06T04:28:33.579Z,11.10
2023-05-06T04:31:02.290Z,11.20
2023-05-06T04:33:41.621Z,11.20
2023-05-06T04:36:13.213Z,11.20
2023-05-06T04:38:47.284Z,11.30
2023-05-06T04:41:15.759Z,11.30
2023-05-06T04:43:43.227Z,11.30
2023-05-06T04:46:17.349Z,11.30
2023-05-06T04:48:45.630Z,11.30
2023-05-06T04:51:14.332Z,11.40
2023-05-06T04:53:41.696Z,11.30
2023-05-06T04:56:09.799Z,11.40
2023-05-06T04:58:37.090Z,11.40
2023-05-06T05:01:05.810Z,11.40
2023-05-06T05:03:33.056Z,11.40
2023-05-06T05:06:02.009Z,11.50
2023-05-06T05:08:29.033Z,11.50
2023-05-06T05:10:56.779Z,11.50
2023-05-06T05:13:26.135Z,11.50
2023-05-06T05:15:55.914Z,11.50
2023-05-06T05:18:25.364Z,11.50
2023-05-06T05:20:56.624Z,11.50
2023-05-06T05:23:24.066Z,11.50
2023-05-06T05:25:51.309Z,11.50
2023-05-06T05:28:18.368Z,11.50
2023-05-06T05:30:45.647Z,11.60
2023-05-06T05:33:12.841Z,11.60
2023-05-06T05:35:40.646Z,11.60
2023-05-06T05:38:08.849Z,11.70
2023-05-06T05:40:37.000Z,11.70
2023-05-06T05:43:04.239Z,11.80
2023-05-06T05:45:36.817Z,11.90
2023-05-06T05:48:04.162Z,11.90
2023-05-06T05:50:31.332Z,12.00
2023-05-06T05:52:58.877Z,12.00
2023-05-06T05:55:29.556Z,12.10
2023-05-06T05:57:58.043Z,12.10
2023-05-06T06:00:27.760Z,12.20
2023-05-06T06:03:02.121Z,12.20
2023-05-06T06:05:30.970Z,12.30
2023-05-06T06:07:58.872Z,12.30
2023-05-06T06:10:26.684Z,12.20
2023-05-06T06:12:54.515Z,12.30
2023-05-06T06:15:25.924Z,12.40
2023-05-06T06:17:55.016Z,12.40
2023-05-06T06:20:23.633Z,12.40
2023-05-06T06:22:51.169Z,12.50
2023-05-06T06:25:20.106Z,12.60
2023-05-06T06:27:48.668Z,12.60
2023-05-06T06:30:16.035Z,12.70
2023-05-06T06:32:53.694Z,12.80
2023-05-06T06:35:20.834Z,12.90
2023-05-06T06:37:48.358Z,13.00
2023-05-06T06:40:15.547Z,13.10
2023-05-06T06:42:42.499Z,13.10
2023-05-06T06:45:30.220Z,13.20
2023-05-06T06:47:57.401Z,13.30
2023-05-06T06:50:24.489Z,13.30
2023-05-06T06:52:51.665Z,13.50
2023-05-06T06:55:18.879Z,13.50
2023-05-06T06:57:46.050Z,13.60
2023-05-06T07:00:13.444Z,13.70
2023-05-06T07:02:40.543Z,13.90
2023-05-06T07:05:08.158Z,13.90
2023-05-06T07:07:35.744Z,13.90
2023-05-06T07:10:02.741Z,14.20
2023-05-06T07:12:30.257Z,14.10
2023-05-06T07:14:57.265Z,14.10
2023-05-06T07:17:24.346Z,14.20
2023-05-06T07:19:51.383Z,14.20
2023-05-06T07:22:18.588Z,14.30
2023-05-06T07:24:45.549Z,14.30
2023-05-06T07:27:12.584Z,14.40
2023-05-06T07:29:39.544Z,14.50
2023-05-06T07:32:06.703Z,14.50
2023-05-06T07:34:34.589Z,14.60
2023-05-06T07:37:01.790Z,14.70
2023-05-06T07:39:28.902Z,14.80
2023-05-06T07:41:56.492Z,14.90
2023-05-06T07:44:23.442Z,15.00
2023-05-06T07:46:51.248Z,15.00
2023-05-06T07:49:18.357Z,15.00
2023-05-06T07:51:45.598Z,15.10
2023-05-06T07:54:12.835Z,15.30
2023-05-06T07:56:39.750Z,15.40
2023-05-06T07:59:06.917Z,15.50
2023-05-06T08:01:33.880Z,15.60
2023-05-06T08:04:00.975Z,15.70
2023-05-06T08:06:27.994Z,15.80
2023-05-06T08:08:55.001Z,15.90
2023-05-06T08:11:22.049Z,16.00
2023-05-06T08:13:49.073Z,16.10
2023-05-06T08:16:16.494Z,16.10
2023-05-06T08:18:45.160Z,16.20
2023-05-06T08:21:12.210Z,16.30
2023-05-06T08:23:39.257Z,16.40
2023-05-06T08:26:06.220Z,16.40
2023-05-06T08:28:38.346Z,16.60
2023-05-06T08:31:05.663Z,16.70
2023-05-06T08:33:32.673Z,16.70
2023-05-06T08:35:59.824Z,16.80
2023-05-06T08:38:27.112Z,16.90
2023-05-06T08:40:54.924Z,17.00
2023-05-06T08:43:24.629Z,17.10
2023-05-06T08:46:00.382Z,17.20
2023-05-06T08:48:27.527Z,17.40
2023-05-06T08:50:56.248Z,17.40
2023-05-06T08:53:23.336Z,17.60
2023-05-06T08:55:54.111Z,17.70
2023-05-06T08:58:22.834Z,17.60
2023-05-06T09:00:51.548Z,17.70
2023-05-06T09:03:18.921Z,17.90
2023-05-06T09:05:46.184Z,18.10
2023-05-06T09:08:14.561Z,18.10
2023-05-06T09:10:46.758Z,18.40
2023-05-06T09:13:16.409Z,18.30
2023-05-06T09:15:45.140Z,18.60
2023-05-06T09:18:12.171Z,18.80
2023-05-06T09:20:44.469Z,18.70
2023-05-06T09:23:13.469Z,18.80
2023-05-06T09:25:41.043Z,18.50
2023-05-06T09:28:11.034Z,18.60
2023-05-06T09:30:42.702Z,18.80
2023-05-06T09:33:09.996Z,18.90
2023-05-06T09:35:44.394Z,19.00
2023-05-06T09:38:11.531Z,19.30
2023-05-06T09:40:39.613Z,19.50
2023-05-06T09:43:06.763Z,19.60
2023-05-06T09:45:33.931Z,19.70
2023-05-06T09:48:01.331Z,19.80
2023-05-06T09:50:28.897Z,20.10
2023-05-06T09:52:57.370Z,20.00
2023-05-06T09:55:27.203Z,19.90
2023-05-06T09:57:55.628Z,20.00
2023-05-06T10:00:28.206Z,20.10
2023-05-06T10:02:56.043Z,20.10
2023-05-06T10:05:24.146Z,20.40
2023-05-06T10:07:53.424Z,20.00
2023-05-06T10:10:22.855Z,19.70
2023-05-06T10:12:52.306Z,19.90
2023-05-06T10:15:23.481Z,20.10
2023-05-06T10:17:52.837Z,20.00
2023-05-06T10:20:22.103Z,20.00
2023-05-06T10:23:03.966Z,20.20
2023-05-06T10:25:37.182Z,19.90
2023-05-06T10:28:11.536Z,20.00
2023-05-06T10:30:45.980Z,20.20
2023-05-06T10:33:15.495Z,20.30
2023-05-06T10:35:42.625Z,20.20
2023-05-06T10:38:39.288Z,20.20
2023-05-06T10:41:09.031Z,20.10
2023-05-06T10:43:41.686Z,20.30
2023-05-06T10:46:13.095Z,20.20
2023-05-06T10:48:59.505Z,20.20
2023-05-06T10:51:28.612Z,20.30
2023-05-06T10:53:55.753Z,20.30
2023-05-06T10:56:22.873Z,20.40
2023-05-06T10:58:50.078Z,20.30
2023-05-06T11:01:20.867Z,20.50
2023-05-06T11:03:50.203Z,20.30
2023-05-06T11:06:41.819Z,20.50
2023-05-06T11:09:27.349Z,20.60
2023-05-06T11:12:05.604Z,20.40
2023-05-06T11:14:38.899Z,20.50
2023-05-06T11:17:08.159Z,20.50
2023-05-06T11:19:38.361Z,20.60
2023-05-06T11:22:06.638Z,20.80
2023-05-06T11:24:43.946Z,20.70
2023-05-06T11:27:11.787Z,20.70
2023-05-06T11:29:39.385Z,20.80
2023-05-06T11:32:22.970Z,20.90
2023-05-06T11:34:54.508Z,21.10
2023-05-06T11:37:26.614Z,21.30
2023-05-06T11:39:53.842Z,21.40
2023-05-06T11:42:28.330Z,21.50
2023-05-06T11:44:56.337Z,21.30
2023-05-06T11:47:25.490Z,21.30
2023-05-06T11:49:54.971Z,21.30
2023-05-06T11:52:22.011Z,21.30
2023-05-06T11:54:52.259Z,21.40
2023-05-06T11:57:21.542Z,21.50
2023-05-06T11:59:56.569Z,21.70
2023-05-06T12:02:23.894Z,21.70
2023-05-06T12:04:51.500Z,21.20
2023-05-06T12:07:18.997Z,21.00
2023-05-06T12:09:49.917Z,20.90
2023-05-06T12:12:22.608Z,21.00
2023-05-06T12:14:51.069Z,20.90
2023-05-06T12:17:19.033Z,21.20
2023-05-06T12:19:46.786Z,21.10
2023-05-06T12:22:21.711Z,21.10
2023-05-06T12:24:49.447Z,21.10
2023-05-06T12:27:35.068Z,21.10
2023-05-06T12:30:04.548Z,20.90
2023-05-06T12:32:31.989Z,20.90
2023-05-06T12:35:00.496Z,20.90
2023-05-06T12:37:30.641Z,21.00
2023-05-06T12:39:59.193Z,21.10
2023-05-06T12:42:27.202Z,21.20
2023-05-06T12:44:54.625Z,21.30
2023-05-06T12:47:24.616Z,21.20
2023-05-06T12:49:53.936Z,21.00
2023-05-06T12:52:22.756Z,20.90
2023-05-06T12:54:50.278Z,21.10
2023-05-06T12:57:17.417Z,21.00
2023-05-06T12:59:48.158Z,21.20
2023-05-06T13:02:15.659Z,21.30
2023-05-06T13:04:42.883Z,21.40
2023-05-06T13:07:10.200Z,21.40
2023-05-06T13:09:38.483Z,21.50
2023-05-06T13:12:06.287Z,21.30
2023-05-06T13:14:33.299Z,21.30
2023-05-06T13:17:01.664Z,21.20
2023-05-06T13:19:33.029Z,21.20
2023-05-06T13:22:00.832Z,21.20
2023-05-06T13:24:29.698Z,21.30
2023-05-06T13:26:57.661Z,21.40
2023-05-06T13:29:24.903Z,21.80
2023-05-06T13:31:52.988Z,21.60
2023-05-06T13:34:20.052Z,21.60
2023-05-06T13:36:49.697Z,21.80
2023-05-06T13:39:17.128Z,21.60
2023-05-06T13:41:47.588Z,21.70
2023-05-06T13:44:14.610Z,21.80
2023-05-06T13:46:43.588Z,21.70
2023-05-06T13:49:13.764Z,21.90
2023-05-06T13:51:40.876Z,22.00
2023-05-06T13:54:07.959Z,22.10
2023-05-06T13:56:35.232Z,22.00
2023-05-06T13:59:03.388Z,22.00
2023-05-06T14:01:31.830Z,22.00
2023-05-06T14:03:58.863Z,21.80
2023-05-06T14:06:26.965Z,21.70
2023-05-06T14:08:54.509Z,21.70
2023-05-06T14:11:22.582Z,21.70
2023-05-06T14:13:49.596Z,21.70
2023-05-06T14:16:16.784Z,21.70
2023-05-06T14:18:46.584Z,21.60
2023-05-06T14:21:16.942Z,21.40
2023-05-06T14:23:44.343Z,21.50
2023-05-06T14:26:11.509Z,21.50
2023-05-06T14:28:38.723Z,21.60
2023-05-06T14:31:06.332Z,21.60
2023-05-06T14:33:33.564Z,21.80
2023-05-06T14:36:03.727Z,21.70
2023-05-06T14:38:32.220Z,21.60
2023-05-06T14:41:03.402Z,21.60
2023-05-06T14:43:30.638Z,21.70
2023-05-06T14:45:57.712Z,21.60
2023-05-06T14:48:25.595Z,21.60
2023-05-06T14:50:52.581Z,21.70
2023-05-06T14:53:20.033Z,21.60
2023-05-06T14:55:48.900Z,21.60
2023-05-06T14:58:17.907Z,21.70
2023-05-06T15:00:46.757Z,21.70
2023-05-06T15:03:13.796Z,21.60
2023-05-06T15:05:40.807Z,21.70
2023-05-06T15:08:08.272Z,21.60
2023-05-06T15:10:35.330Z,21.50
2023-05-06T15:13:03.421Z,21.50
2023-05-06T15:15:30.501Z,21.50
2023-05-06T15:17:57.664Z,21.40
2023-05-06T15:20:24.602Z,21.30
2023-05-06T15:22:51.592Z,21.40
2023-05-06T15:25:33.401Z,21.20
2023-05-06T15:28:04.055Z,21.30
2023-05-06T15:30:31.186Z,21.30
2023-05-06T15:32:58.194Z,21.30
2023-05-06T15:35:25.263Z,20.90
2023-05-06T15:37:58.686Z,20.30
2023-05-06T15:40:26.674Z,19.80
2023-05-06T15:42:53.655Z,19.30
2023-05-06T15:45:21.812Z,19.00
2023-05-06T15:47:49.051Z,18.60
2023-05-06T15:50:31.670Z,18.30
2023-05-06T15:53:01.173Z,18.20
2023-05-06T15:55:28.481Z,17.80
2023-05-06T15:57:59.171Z,17.70
2023-05-06T16:00:28.027Z,17.50
2023-05-06T16:02:55.024Z,17.70
2023-05-06T16:05:22.280Z,17.80
2023-05-06T16:07:49.630Z,17.60
2023-05-06T16:10:16.672Z,17.60
2023-05-06T16:12:43.761Z,17.70
2023-05-06T16:15:11.079Z,17.70
2023-05-06T16:17:38.439Z,17.60
2023-05-06T16:20:06.142Z,17.70
2023-05-06T16:22:33.394Z,17.80
2023-05-06T16:25:00.452Z,17.80
2023-05-06T16:27:29.534Z,17.90
2023-05-06T16:29:56.504Z,17.80
2023-05-06T16:32:23.815Z,17.70
2023-05-06T16:34:51.103Z,17.70
2023-05-06T16:37:18.107Z,17.80
2023-05-06T16:39:45.318Z,18.00
2023-05-06T16:42:13.653Z,17.90
2023-05-06T16:44:41.141Z,17.80
2023-05-06T16:47:08.195Z,17.80
2023-05-06T16:49:35.670Z,17.90
2023-05-06T16:52:02.848Z,17.90
2023-05-06T16:54:30.068Z,17.90
2023-05-06T16:56:58.461Z,17.80
2023-05-06T16:59:25.603Z,17.80
2023-05-06T17:01:52.873Z,17.70
2023-05-06T17:04:19.891Z,17.80
2023-05-06T17:06:46.958Z,17.70
2023-05-06T17:09:14.260Z,17.60
2023-05-06T17:11:41.168Z,17.60
2023-05-06T17:14:08.503Z,17.60
2023-05-06T17:16:35.541Z,17.60
2023-05-06T17:19:02.590Z,17.70
2023-05-06T17:21:29.610Z,17.60
2023-05-06T17:23:56.664Z,17.60
2023-05-06T17:26:24.488Z,17.50
2023-05-06T17:28:51.503Z,17.60
2023-05-06T17:31:21.182Z,17.60
2023-05-06T17:33:48.220Z,17.60
2023-05-06T17:36:20.819Z,17.70
2023-05-06T17:38:48.520Z,17.60
2023-05-06T17:41:16.127Z,17.60
2023-05-06T17:43:47.817Z,17.50
2023-05-06T17:46:16.328Z,17.40
2023-05-06T17:48:47.260Z,17.50
2023-05-06T17:51:16.576Z,17.60
2023-05-06T17:53:44.086Z,17.50
2023-05-06T17:56:13.366Z,17.40
2023-05-06T17:58:40.360Z,17.50
2023-05-06T18:01:07.390Z,17.50
2023-05-06T18:03:34.744Z,17.40
2023-05-06T18:06:02.534Z,17.40
2023-05-06T18:08:30.538Z,17.40
2023-05-06T18:10:57.525Z,17.40
2023-05-06T18:13:25.753Z,17.40
2023-05-06T18:15:53.802Z,17.40
2023-05-06T18:18:22.036Z,17.30
2023-05-06T18:20:49.090Z,17.30
2023-05-06T18:23:17.672Z,17.40
2023-05-06T18:25:44.622Z,17.30
2023-05-06T18:28:11.630Z,17.30
2023-05-06T18:30:38.642Z,17.20
2023-05-06T18:33:05.777Z,17.20
2023-05-06T18:35:32.991Z,17.30
2023-05-06T18:38:00.037Z,17.20
2023-05-06T18:40:27.232Z,17.10
2023-05-06T18:42:58.578Z,17.00
2023-05-06T18:45:25.690Z,17.00
2023-05-06T18:47:54.164Z,17.00
2023-05-06T18:50:23.880Z,16.90
2023-05-06T18:52:53.022Z,16.90
2023-05-06T18:55:20.773Z,16.90
2023-05-06T18:57:47.763Z,16.90
2023-05-06T19:00:15.129Z,16.80
2023-05-06T19:02:42.151Z,16.80
2023-05-06T19:05:10.069Z,16.80
2023-05-06T19:07:39.667Z,16.80
2023-05-06T19:10:07.429Z,16.70
2023-05-06T19:12:37.515Z,16.70
2023-05-06T19:15:04.903Z,16.80
2023-05-06T19:17:31.950Z,16.70
2023-05-06T19:19:58.898Z,16.70
2023-05-06T19:22:26.508Z,16.60
2023-05-06T19:24:55.807Z,16.60
2023-05-06T19:27:24.664Z,16.60
2023-05-06T19:29:52.104Z,16.60
2023-05-06T19:32:19.177Z,16.60
2023-05-06T19:34:47.673Z,16.60
2023-05-06T19:37:14.769Z,16.60
2023-05-06T19:39:43.696Z,16.50
2023-05-06T19:42:11.318Z,16.50
2023-05-06T19:44:40.905Z,16.50
2023-05-06T19:47:09.120Z,16.50
2023-05-06T19:49:38.764Z,16.50
2023-05-06T19:52:05.647Z,16.60
2023-05-06T19:54:32.848Z,16.60
2023-05-06T19:57:00.240Z,16.60
2023-05-06T19:59:29.457Z,16.50
2023-05-06T20:02:00.756Z,16.60
2023-05-06T20:04:28.563Z,16.50
2023-05-06T20:06:55.792Z,16.40
2023-05-06T20:09:22.822Z,16.50
2023-05-06T20:11:49.804Z,16.40
2023-05-06T20:14:16.804Z,16.40
2023-05-06T20:16:43.836Z,16.40
2023-05-06T20:19:11.644Z,16.40
2023-05-06T20:21:40.652Z,16.40
2023-05-06T20:24:09.138Z,16.40
2023-05-06T20:26:36.200Z,16.20
2023-05-06T20:29:03.329Z,16.30
2023-05-06T20:31:30.379Z,16.30
2023-05-06T20:33:57.638Z,16.30
2023-05-06T20:36:24.966Z,16.30
2023-05-06T20:38:52.370Z,16.20
2023-05-06T20:41:19.559Z,16.10
2023-05-06T20:43:46.766Z,16.10
2023-05-06T20:46:19.496Z,16.00
2023-05-06T20:48:46.772Z,16.00
2023-05-06T20:51:13.841Z,16.00
2023-05-06T20:53:41.909Z,15.90
2023-05-06T20:56:24.679Z,15.90
2023-05-06T20:58:54.370Z,15.80
2023-05-06T21:01:23.303Z,15.70
2023-05-06T21:03:52.095Z,15.70
2023-05-06T21:06:20.113Z,15.70
2023-05-06T21:08:47.510Z,15.70
2023-05-06T21:11:15.835Z,15.60
2023-05-06T21:13:42.873Z,15.60
2023-05-06T21:16:09.925Z,15.60
2023-05-06T21:18:37.103Z,15.50
2023-05-06T21:21:04.812Z,15.50
2023-05-06T21:23:32.924Z,15.50
2023-05-06T21:26:00.656Z,15.40
2023-05-06T21:28:27.646Z,15.40
2023-05-06T21:30:55.510Z,15.30
2023-05-06T21:33:23.593Z,15.30
2023-05-06T21:35:50.610Z,15.30
2023-05-06T21:38:18.851Z,15.20
2023-05-06T21:40:45.922Z,15.10
2023-05-06T21:43:17.716Z,15.10
2023-05-06T21:45:45.032Z,15.10
2023-05-06T21:48:12.108Z,15.10
2023-05-06T21:50:39.642Z,15.10
2023-05-06T21:53:06.668Z,15.10
2023-05-06T21:55:33.800Z,15.20
2023-05-06T21:58:00.742Z,15.10
2023-05-06T22:00:28.254Z,15.00
2023-05-06T22:02:55.531Z,14.90
2023-05-06T22:05:22.475Z,15.00
2023-05-06T22:07:50.344Z,15.00
2023-05-06T22:10:17.389Z,14.90
2023-05-06T22:12:44.394Z,15.00
2023-05-06T22:15:13.850Z,14.90
2023-05-06T22:17:41.050Z,14.90
2023-05-06T22:20:11.106Z,14.90
2023-05-06T22:22:38.435Z,15.00
2023-05-06T22:25:06.117Z,15.10
2023-05-06T22:27:33.340Z,15.00
2023-05-06T22:30:00.453Z,15.00
2023-05-06T22:32:27.504Z,14.90
2023-05-06T22:34:54.743Z,14.90
2023-05-06T22:37:21.840Z,14.90
2023-05-06T22:39:50.785Z,14.80
2023-05-06T22:42:17.799Z,14.80
2023-05-06T22:44:44.707Z,14.80
2023-05-06T22:47:11.719Z,14.80
2023-05-06T22:49:38.738Z,14.70
2023-05-06T22:52:05.696Z,14.80
2023-05-06T22:54:34.326Z,14.80
2023-05-06T22:57:02.673Z,14.80
2023-05-06T22:59:30.730Z,14.80
2023-05-06T23:01:57.746Z,14.80
2023-05-06T23:04:25.604Z,14.80
2023-05-06T23:06:52.508Z,14.80
2023-05-06T23:09:19.541Z,14.80
2023-05-06T23:11:46.635Z,14.90
2023-05-06T23:14:13.521Z,14.90
2023-05-06T23:16:40.549Z,14.90
2023-05-06T23:19:07.555Z,14.80
2023-05-06T23:21:34.788Z,14.80
2023-05-06T23:24:01.805Z,14.80
2023-05-06T23:26:28.740Z,14.90
2023-05-06T23:28:55.867Z,14.90
2023-05-06T23:31:23.918Z,14.90
2023-05-06T23:33:51.384Z,14.90
2023-05-06T23:36:18.457Z,14.90
2023-05-06T23:38:45.461Z,14.80
2023-05-06T23:41:12.342Z,14.90
2023-05-06T23:43:39.300Z,14.80
2023-05-06T23:46:06.308Z,14.90
2023-05-06T23:48:33.858Z,14.90
2023-05-06T23:51:00.804Z,14.90
2023-05-06T23:53:27.839Z,14.90
2023-05-06T23:55:55.439Z,14.80
2023-05-06T23:58:22.465Z,14.80
